sensor_id;sensor_type;location;lat;lon;timestamp;P1;durP1;ratioP1;P2;durP2;ratioP2
16101;SDS011;56411;52.964;10.540;2022-07-21T00:01:12;26.65;;;20.45;;
16101;SDS011;56411;52.964;10.540;2022-07-21T00:03:39;25.70;;;20.40;;
16101;SDS011;56411;52.964;10.540;2022-07-21T00:06:07;27.48;;;19.50;;
16101;SDS011;56411;52.964;10.540;2022-07-21T00:08:34;28.45;;;20.55;;
16101;SDS011;56411;52.964;10.540;2022-07-21T00:11:03;27.92;;;20.25;;
16101;SDS011;56411;52.964;10.540;2022-07-21T00:13:30;27.65;;;20.75;;
16101;SDS011;56411;52.964;10.540;2022-07-21T00:15:57;27.23;;;20.27;;
16101;SDS011;56411;52.964;10.540;2022-07-21T00:18:24;28.02;;;20.50;;
16101;SDS011;56411;52.964;10.540;2022-07-21T00:20:53;28.10;;;20.65;;
16101;SDS011;56411;52.964;10.540;2022-07-21T00:23:20;26.38;;;19.70;;
16101;SDS011;56411;52.964;10.540;2022-07-21T00:25:48;26.27;;;19.88;;
16101;SDS011;56411;52.964;10.540;2022-07-21T00:28:17;26.70;;;19.85;;
16101;SDS011;56411;52.964;10.540;2022-07-21T00:30:44;25.83;;;19.38;;
16101;SDS011;56411;52.964;10.540;2022-07-21T00:33:11;26.55;;;19.38;;
16101;SDS011;56411;52.964;10.540;2022-07-21T00:35:39;32.50;;;20.92;;
16101;SDS011;56411;52.964;10.540;2022-07-21T00:38:06;26.10;;;19.80;;
16101;SDS011;56411;52.964;10.540;2022-07-21T00:40:33;25.40;;;19.23;;
16101;SDS011;56411;52.964;10.540;2022-07-21T00:43:00;24.00;;;18.85;;
16101;SDS011;56411;52.964;10.540;2022-07-21T00:45:28;25.90;;;19.55;;
16101;SDS011;56411;52.964;10.540;2022-07-21T00:47:55;26.17;;;19.05;;
16101;SDS011;56411;52.964;10.540;2022-07-21T00:50:22;25.02;;;19.00;;
16101;SDS011;56411;52.964;10.540;2022-07-21T00:52:50;27.77;;;19.80;;
16101;SDS011;56411;52.964;10.540;2022-07-21T00:55:18;27.23;;;19.80;;
16101;SDS011;56411;52.964;10.540;2022-07-21T00:57:46;24.23;;;18.27;;
16101;SDS011;56411;52.964;10.540;2022-07-21T01:00:15;25.50;;;17.65;;
16101;SDS011;56411;52.964;10.540;2022-07-21T01:02:45;22.73;;;17.55;;
16101;SDS011;56411;52.964;10.540;2022-07-21T01:05:13;23.00;;;17.52;;
16101;SDS011;56411;52.964;10.540;2022-07-21T01:07:42;22.35;;;16.15;;
16101;SDS011;56411;52.964;10.540;2022-07-21T01:10:11;20.63;;;16.27;;
16101;SDS011;56411;52.964;10.540;2022-07-21T01:12:39;20.77;;;14.93;;
16101;SDS011;56411;52.964;10.540;2022-07-21T01:15:07;20.90;;;15.02;;
16101;SDS011;56411;52.964;10.540;2022-07-21T01:17:36;21.90;;;14.75;;
16101;SDS011;56411;52.964;10.540;2022-07-21T01:20:06;19.48;;;13.68;;
16101;SDS011;56411;52.964;10.540;2022-07-21T01:22:38;19.58;;;13.43;;
16101;SDS011;56411;52.964;10.540;2022-07-21T01:25:07;19.05;;;13.52;;
16101;SDS011;56411;52.964;10.540;2022-07-21T01:27:35;18.83;;;12.57;;
16101;SDS011;56411;52.964;10.540;2022-07-21T01:30:02;16.08;;;12.10;;
16101;SDS011;56411;52.964;10.540;2022-07-21T01:32:32;20.05;;;12.98;;
16101;SDS011;56411;52.964;10.540;2022-07-21T01:35:00;17.17;;;12.02;;
16101;SDS011;56411;52.964;10.540;2022-07-21T01:37:28;17.17;;;12.02;;
16101;SDS011;56411;52.964;10.540;2022-07-21T01:39:58;17.10;;;11.80;;
16101;SDS011;56411;52.964;10.540;2022-07-21T01:42:42;18.65;;;12.57;;
16101;SDS011;56411;52.964;10.540;2022-07-21T01:45:10;18.67;;;11.57;;
16101;SDS011;56411;52.964;10.540;2022-07-21T01:47:37;16.52;;;12.20;;
16101;SDS011;56411;52.964;10.540;2022-07-21T01:50:06;18.92;;;11.98;;
16101;SDS011;56411;52.964;10.540;2022-07-21T01:52:33;17.20;;;12.07;;
16101;SDS011;56411;52.964;10.540;2022-07-21T01:55:02;18.67;;;12.50;;
16101;SDS011;56411;52.964;10.540;2022-07-21T01:57:30;17.83;;;12.43;;
16101;SDS011;56411;52.964;10.540;2022-07-21T01:59:57;18.25;;;12.30;;
16101;SDS011;56411;52.964;10.540;2022-07-21T02:02:24;18.50;;;11.85;;
16101;SDS011;56411;52.964;10.540;2022-07-21T02:04:51;17.65;;;11.85;;
16101;SDS011;56411;52.964;10.540;2022-07-21T02:07:18;18.35;;;11.52;;
16101;SDS011;56411;52.964;10.540;2022-07-21T02:09:45;20.35;;;12.40;;
16101;SDS011;56411;52.964;10.540;2022-07-21T02:12:14;18.83;;;12.07;;
16101;SDS011;56411;52.964;10.540;2022-07-21T02:14:41;18.45;;;11.63;;
16101;SDS011;56411;52.964;10.540;2022-07-21T02:17:08;19.35;;;11.75;;
16101;SDS011;56411;52.964;10.540;2022-07-21T02:19:35;18.50;;;11.93;;
16101;SDS011;56411;52.964;10.540;2022-07-21T02:22:02;16.70;;;11.70;;
16101;SDS011;56411;52.964;10.540;2022-07-21T02:24:29;17.67;;;12.07;;
16101;SDS011;56411;52.964;10.540;2022-07-21T02:26:56;18.13;;;11.50;;
16101;SDS011;56411;52.964;10.540;2022-07-21T02:29:25;18.98;;;11.38;;
16101;SDS011;56411;52.964;10.540;2022-07-21T02:31:52;19.67;;;12.38;;
16101;SDS011;56411;52.964;10.540;2022-07-21T02:34:19;20.58;;;11.48;;
16101;SDS011;56411;52.964;10.540;2022-07-21T02:36:46;18.35;;;11.35;;
16101;SDS011;56411;52.964;10.540;2022-07-21T02:39:13;18.80;;;11.40;;
16101;SDS011;56411;52.964;10.540;2022-07-21T02:41:41;17.00;;;10.95;;
16101;SDS011;56411;52.964;10.540;2022-07-21T02:44:08;16.77;;;11.13;;
16101;SDS011;56411;52.964;10.540;2022-07-21T02:46:36;19.23;;;11.32;;
16101;SDS011;56411;52.964;10.540;2022-07-21T02:49:03;18.10;;;11.48;;
16101;SDS011;56411;52.964;10.540;2022-07-21T02:51:30;21.55;;;11.25;;
16101;SDS011;56411;52.964;10.540;2022-07-21T02:53:57;17.63;;;11.18;;
16101;SDS011;56411;52.964;10.540;2022-07-21T02:56:24;16.85;;;10.55;;
16101;SDS011;56411;52.964;10.540;2022-07-21T02:58:51;17.92;;;11.50;;
16101;SDS011;56411;52.964;10.540;2022-07-21T03:01:18;19.75;;;10.93;;
16101;SDS011;56411;52.964;10.540;2022-07-21T03:03:46;18.55;;;10.50;;
16101;SDS011;56411;52.964;10.540;2022-07-21T03:06:13;18.05;;;10.57;;
16101;SDS011;56411;52.964;10.540;2022-07-21T03:08:40;18.75;;;10.45;;
16101;SDS011;56411;52.964;10.540;2022-07-21T03:11:07;16.67;;;9.88;;
16101;SDS011;56411;52.964;10.540;2022-07-21T03:13:34;18.42;;;10.68;;
16101;SDS011;56411;52.964;10.540;2022-07-21T03:16:01;16.42;;;9.15;;
16101;SDS011;56411;52.964;10.540;2022-07-21T03:18:28;17.25;;;9.98;;
16101;SDS011;56411;52.964;10.540;2022-07-21T03:20:56;16.90;;;9.75;;
16101;SDS011;56411;52.964;10.540;2022-07-21T03:23:24;17.88;;;9.00;;
16101;SDS011;56411;52.964;10.540;2022-07-21T03:25:51;14.48;;;8.65;;
16101;SDS011;56411;52.964;10.540;2022-07-21T03:28:18;16.40;;;8.52;;
16101;SDS011;56411;52.964;10.540;2022-07-21T03:30:45;14.32;;;8.40;;
16101;SDS011;56411;52.964;10.540;2022-07-21T03:33:12;16.08;;;7.68;;
16101;SDS011;56411;52.964;10.540;2022-07-21T03:35:39;17.48;;;8.48;;
16101;SDS011;56411;52.964;10.540;2022-07-21T03:38:08;14.95;;;7.97;;
16101;SDS011;56411;52.964;10.540;2022-07-21T03:40:36;15.30;;;8.07;;
16101;SDS011;56411;52.964;10.540;2022-07-21T03:43:05;14.70;;;7.45;;
16101;SDS011;56411;52.964;10.540;2022-07-21T03:45:33;14.80;;;7.30;;
16101;SDS011;56411;52.964;10.540;2022-07-21T03:48:02;14.20;;;6.82;;
16101;SDS011;56411;52.964;10.540;2022-07-21T03:50:31;15.18;;;6.68;;
16101;SDS011;56411;52.964;10.540;2022-07-21T03:52:59;14.88;;;6.13;;
16101;SDS011;56411;52.964;10.540;2022-07-21T03:55:28;15.38;;;6.68;;
16101;SDS011;56411;52.964;10.540;2022-07-21T03:57:55;13.93;;;6.40;;
16101;SDS011;56411;52.964;10.540;2022-07-21T04:00:25;13.93;;;6.28;;
16101;SDS011;56411;52.964;10.540;2022-07-21T04:02:53;16.33;;;6.78;;
16101;SDS011;56411;52.964;10.540;2022-07-21T04:05:21;14.95;;;6.57;;
16101;SDS011;56411;52.964;10.540;2022-07-21T04:07:49;16.20;;;6.47;;
16101;SDS011;56411;52.964;10.540;2022-07-21T04:10:18;14.43;;;6.50;;
16101;SDS011;56411;52.964;10.540;2022-07-21T04:12:47;13.75;;;6.22;;
16101;SDS011;56411;52.964;10.540;2022-07-21T04:15:15;13.80;;;6.28;;
16101;SDS011;56411;52.964;10.540;2022-07-21T04:17:42;13.18;;;6.13;;
16101;SDS011;56411;52.964;10.540;2022-07-21T04:20:10;13.60;;;6.20;;
16101;SDS011;56411;52.964;10.540;2022-07-21T04:22:39;13.50;;;5.93;;
16101;SDS011;56411;52.964;10.540;2022-07-21T04:25:06;13.30;;;5.93;;
16101;SDS011;56411;52.964;10.540;2022-07-21T04:27:35;14.48;;;6.50;;
16101;SDS011;56411;52.964;10.540;2022-07-21T04:30:04;11.85;;;5.72;;
16101;SDS011;56411;52.964;10.540;2022-07-21T04:32:34;15.80;;;6.22;;
16101;SDS011;56411;52.964;10.540;2022-07-21T04:35:02;12.40;;;5.78;;
16101;SDS011;56411;52.964;10.540;2022-07-21T04:37:29;11.38;;;4.95;;
16101;SDS011;56411;52.964;10.540;2022-07-21T04:39:56;14.43;;;5.63;;
16101;SDS011;56411;52.964;10.540;2022-07-21T04:42:23;14.32;;;5.50;;
16101;SDS011;56411;52.964;10.540;2022-07-21T04:44:50;13.13;;;5.20;;
16101;SDS011;56411;52.964;10.540;2022-07-21T04:47:19;13.48;;;5.68;;
16101;SDS011;56411;52.964;10.540;2022-07-21T04:49:46;13.43;;;5.88;;
16101;SDS011;56411;52.964;10.540;2022-07-21T04:52:13;14.95;;;6.10;;
16101;SDS011;56411;52.964;10.540;2022-07-21T04:54:40;12.25;;;5.20;;
16101;SDS011;56411;52.964;10.540;2022-07-21T04:57:07;13.52;;;5.25;;
16101;SDS011;56411;52.964;10.540;2022-07-21T04:59:34;15.88;;;5.35;;
16101;SDS011;56411;52.964;10.540;2022-07-21T05:02:02;14.13;;;5.45;;
16101;SDS011;56411;52.964;10.540;2022-07-21T05:04:30;13.98;;;5.18;;
16101;SDS011;56411;52.964;10.540;2022-07-21T05:06:57;11.88;;;5.55;;
16101;SDS011;56411;52.964;10.540;2022-07-21T05:09:24;14.13;;;5.20;;
16101;SDS011;56411;52.964;10.540;2022-07-21T05:11:51;14.85;;;5.57;;
16101;SDS011;56411;52.964;10.540;2022-07-21T05:14:18;14.85;;;5.32;;
16101;SDS011;56411;52.964;10.540;2022-07-21T05:16:45;11.90;;;5.25;;
16101;SDS011;56411;52.964;10.540;2022-07-21T05:19:12;13.82;;;6.10;;
16101;SDS011;56411;52.964;10.540;2022-07-21T05:21:41;15.38;;;5.68;;
16101;SDS011;56411;52.964;10.540;2022-07-21T05:24:08;14.45;;;5.90;;
16101;SDS011;56411;52.964;10.540;2022-07-21T05:26:35;14.65;;;5.97;;
16101;SDS011;56411;52.964;10.540;2022-07-21T05:29:02;12.68;;;5.65;;
16101;SDS011;56411;52.964;10.540;2022-07-21T05:31:29;12.25;;;5.53;;
16101;SDS011;56411;52.964;10.540;2022-07-21T05:33:56;12.52;;;6.03;;
16101;SDS011;56411;52.964;10.540;2022-07-21T05:36:23;14.43;;;6.10;;
16101;SDS011;56411;52.964;10.540;2022-07-21T05:38:51;14.27;;;6.68;;
16101;SDS011;56411;52.964;10.540;2022-07-21T05:41:18;15.05;;;6.80;;
16101;SDS011;56411;52.964;10.540;2022-07-21T05:43:46;14.88;;;6.53;;
16101;SDS011;56411;52.964;10.540;2022-07-21T05:46:13;14.80;;;6.38;;
16101;SDS011;56411;52.964;10.540;2022-07-21T05:48:40;17.52;;;7.32;;
16101;SDS011;56411;52.964;10.540;2022-07-21T05:51:07;14.60;;;7.32;;
16101;SDS011;56411;52.964;10.540;2022-07-21T05:53:34;13.02;;;6.90;;
16101;SDS011;56411;52.964;10.540;2022-07-21T05:56:02;14.73;;;6.90;;
16101;SDS011;56411;52.964;10.540;2022-07-21T05:58:30;16.13;;;7.07;;
16101;SDS011;56411;52.964;10.540;2022-07-21T06:00:59;16.48;;;6.97;;
16101;SDS011;56411;52.964;10.540;2022-07-21T06:03:37;17.00;;;7.60;;
16101;SDS011;56411;52.964;10.540;2022-07-21T06:06:06;15.38;;;7.07;;
16101;SDS011;56411;52.964;10.540;2022-07-21T06:08:33;14.65;;;6.72;;
16101;SDS011;56411;52.964;10.540;2022-07-21T06:11:03;16.10;;;7.55;;
16101;SDS011;56411;52.964;10.540;2022-07-21T06:13:31;14.93;;;7.72;;
16101;SDS011;56411;52.964;10.540;2022-07-21T06:15:58;18.17;;;7.53;;
16101;SDS011;56411;52.964;10.540;2022-07-21T06:18:25;16.17;;;7.35;;
16101;SDS011;56411;52.964;10.540;2022-07-21T06:20:52;14.38;;;7.50;;
16101;SDS011;56411;52.964;10.540;2022-07-21T06:23:19;15.65;;;7.40;;
16101;SDS011;56411;52.964;10.540;2022-07-21T06:25:47;15.25;;;7.32;;
16101;SDS011;56411;52.964;10.540;2022-07-21T06:28:16;17.25;;;8.73;;
16101;SDS011;56411;52.964;10.540;2022-07-21T06:30:43;17.58;;;8.32;;
16101;SDS011;56411;52.964;10.540;2022-07-21T06:33:10;15.20;;;8.15;;
16101;SDS011;56411;52.964;10.540;2022-07-21T06:35:38;15.70;;;8.32;;
16101;SDS011;56411;52.964;10.540;2022-07-21T06:38:05;13.90;;;7.82;;
16101;SDS011;56411;52.964;10.540;2022-07-21T06:40:32;18.20;;;8.48;;
16101;SDS011;56411;52.964;10.540;2022-07-21T06:42:59;17.38;;;8.25;;
16101;SDS011;56411;52.964;10.540;2022-07-21T06:45:28;18.90;;;9.38;;
16101;SDS011;56411;52.964;10.540;2022-07-21T06:48:02;16.02;;;8.38;;
16101;SDS011;56411;52.964;10.540;2022-07-21T06:50:30;15.68;;;8.05;;
16101;SDS011;56411;52.964;10.540;2022-07-21T06:52:57;16.77;;;8.88;;
16101;SDS011;56411;52.964;10.540;2022-07-21T06:55:24;19.05;;;8.95;;
16101;SDS011;56411;52.964;10.540;2022-07-21T06:57:51;14.93;;;8.75;;
16101;SDS011;56411;52.964;10.540;2022-07-21T07:00:18;14.65;;;8.25;;
16101;SDS011;56411;52.964;10.540;2022-07-21T07:02:47;17.25;;;8.70;;
16101;SDS011;56411;52.964;10.540;2022-07-21T07:05:14;17.95;;;9.18;;
16101;SDS011;56411;52.964;10.540;2022-07-21T07:07:41;15.25;;;8.93;;
16101;SDS011;56411;52.964;10.540;2022-07-21T07:10:09;16.63;;;9.15;;
16101;SDS011;56411;52.964;10.540;2022-07-21T07:12:37;16.52;;;9.45;;
16101;SDS011;56411;52.964;10.540;2022-07-21T07:15:04;15.93;;;9.40;;
16101;SDS011;56411;52.964;10.540;2022-07-21T07:17:32;17.83;;;9.50;;
16101;SDS011;56411;52.964;10.540;2022-07-21T07:20:00;15.40;;;9.25;;
16101;SDS011;56411;52.964;10.540;2022-07-21T07:22:29;17.13;;;10.05;;
16101;SDS011;56411;52.964;10.540;2022-07-21T07:24:56;17.77;;;9.60;;
16101;SDS011;56411;52.964;10.540;2022-07-21T07:27:22;16.50;;;9.23;;
16101;SDS011;56411;52.964;10.540;2022-07-21T07:29:50;16.27;;;8.95;;
16101;SDS011;56411;52.964;10.540;2022-07-21T07:32:17;16.75;;;8.85;;
16101;SDS011;56411;52.964;10.540;2022-07-21T07:34:44;15.88;;;8.88;;
16101;SDS011;56411;52.964;10.540;2022-07-21T07:37:12;15.00;;;8.68;;
16101;SDS011;56411;52.964;10.540;2022-07-21T07:39:39;15.13;;;8.20;;
16101;SDS011;56411;52.964;10.540;2022-07-21T07:42:06;17.58;;;8.98;;
16101;SDS011;56411;52.964;10.540;2022-07-21T07:44:33;15.75;;;8.55;;
16101;SDS011;56411;52.964;10.540;2022-07-21T07:47:00;14.80;;;8.45;;
16101;SDS011;56411;52.964;10.540;2022-07-21T07:49:27;15.48;;;8.90;;
16101;SDS011;56411;52.964;10.540;2022-07-21T07:51:55;19.45;;;8.77;;
16101;SDS011;56411;52.964;10.540;2022-07-21T07:54:23;15.98;;;8.55;;
16101;SDS011;56411;52.964;10.540;2022-07-21T07:56:51;15.38;;;8.32;;
16101;SDS011;56411;52.964;10.540;2022-07-21T07:59:17;15.30;;;8.50;;
16101;SDS011;56411;52.964;10.540;2022-07-21T08:01:44;15.18;;;8.43;;
16101;SDS011;56411;52.964;10.540;2022-07-21T08:04:11;15.30;;;8.57;;
16101;SDS011;56411;52.964;10.540;2022-07-21T08:06:40;14.93;;;8.50;;
16101;SDS011;56411;52.964;10.540;2022-07-21T08:09:07;14.77;;;9.52;;
16101;SDS011;56411;52.964;10.540;2022-07-21T08:11:36;14.48;;;8.90;;
16101;SDS011;56411;52.964;10.540;2022-07-21T08:14:03;17.40;;;9.00;;
16101;SDS011;56411;52.964;10.540;2022-07-21T08:16:30;17.45;;;10.38;;
16101;SDS011;56411;52.964;10.540;2022-07-21T08:18:57;19.52;;;10.85;;
16101;SDS011;56411;52.964;10.540;2022-07-21T08:21:23;15.93;;;9.98;;
16101;SDS011;56411;52.964;10.540;2022-07-21T08:23:55;17.45;;;10.90;;
16101;SDS011;56411;52.964;10.540;2022-07-21T08:26:23;18.98;;;11.52;;
16101;SDS011;56411;52.964;10.540;2022-07-21T08:28:52;18.45;;;10.88;;
16101;SDS011;56411;52.964;10.540;2022-07-21T08:31:19;17.23;;;10.70;;
16101;SDS011;56411;52.964;10.540;2022-07-21T08:33:46;18.25;;;11.82;;
16101;SDS011;56411;52.964;10.540;2022-07-21T08:36:13;19.15;;;11.57;;
16101;SDS011;56411;52.964;10.540;2022-07-21T08:38:40;17.17;;;11.40;;
16101;SDS011;56411;52.964;10.540;2022-07-21T08:41:07;16.70;;;10.93;;
16101;SDS011;56411;52.964;10.540;2022-07-21T08:43:34;17.67;;;11.55;;
16101;SDS011;56411;52.964;10.540;2022-07-21T08:46:03;18.85;;;11.45;;
16101;SDS011;56411;52.964;10.540;2022-07-21T08:48:31;18.70;;;11.07;;
16101;SDS011;56411;52.964;10.540;2022-07-21T08:50:58;17.90;;;11.63;;
16101;SDS011;56411;52.964;10.540;2022-07-21T08:53:25;20.33;;;11.93;;
16101;SDS011;56411;52.964;10.540;2022-07-21T08:55:53;18.88;;;11.80;;
16101;SDS011;56411;52.964;10.540;2022-07-21T08:58:20;19.98;;;12.60;;
16101;SDS011;56411;52.964;10.540;2022-07-21T09:00:48;19.25;;;12.60;;
16101;SDS011;56411;52.964;10.540;2022-07-21T09:03:17;18.23;;;12.55;;
16101;SDS011;56411;52.964;10.540;2022-07-21T09:05:59;19.00;;;12.13;;
16101;SDS011;56411;52.964;10.540;2022-07-21T09:08:33;18.95;;;12.25;;
16101;SDS011;56411;52.964;10.540;2022-07-21T09:11:09;17.95;;;11.80;;
16101;SDS011;56411;52.964;10.540;2022-07-21T09:13:37;17.45;;;11.10;;
16101;SDS011;56411;52.964;10.540;2022-07-21T09:16:05;16.98;;;11.98;;
16101;SDS011;56411;52.964;10.540;2022-07-21T09:18:34;17.88;;;11.77;;
16101;SDS011;56411;52.964;10.540;2022-07-21T09:21:12;16.95;;;11.45;;
16101;SDS011;56411;52.964;10.540;2022-07-21T09:23:41;16.63;;;10.90;;
16101;SDS011;56411;52.964;10.540;2022-07-21T09:26:08;18.60;;;11.23;;
16101;SDS011;56411;52.964;10.540;2022-07-21T09:28:35;16.42;;;10.70;;
16101;SDS011;56411;52.964;10.540;2022-07-21T09:31:02;19.17;;;10.75;;
16101;SDS011;56411;52.964;10.540;2022-07-21T09:33:31;16.48;;;10.60;;
16101;SDS011;56411;52.964;10.540;2022-07-21T09:36:02;16.85;;;11.45;;
16101;SDS011;56411;52.964;10.540;2022-07-21T09:38:31;17.17;;;11.10;;
16101;SDS011;56411;52.964;10.540;2022-07-21T09:41:04;17.90;;;11.32;;
16101;SDS011;56411;52.964;10.540;2022-07-21T09:43:37;17.75;;;11.55;;
16101;SDS011;56411;52.964;10.540;2022-07-21T09:46:10;17.42;;;11.00;;
16101;SDS011;56411;52.964;10.540;2022-07-21T09:48:42;18.15;;;10.85;;
16101;SDS011;56411;52.964;10.540;2022-07-21T09:51:30;15.95;;;10.32;;
16101;SDS011;56411;52.964;10.540;2022-07-21T09:53:59;15.63;;;10.15;;
16101;SDS011;56411;52.964;10.540;2022-07-21T09:56:28;16.13;;;9.55;;
16101;SDS011;56411;52.964;10.540;2022-07-21T09:58:56;14.80;;;10.02;;
16101;SDS011;56411;52.964;10.540;2022-07-21T10:01:24;16.27;;;10.00;;
16101;SDS011;56411;52.964;10.540;2022-07-21T10:03:53;17.02;;;10.52;;
16101;SDS011;56411;52.964;10.540;2022-07-21T10:06:23;17.25;;;10.23;;
16101;SDS011;56411;52.964;10.540;2022-07-21T10:08:52;16.73;;;9.95;;
16101;SDS011;56411;52.964;10.540;2022-07-21T10:11:20;15.23;;;10.15;;
16101;SDS011;56411;52.964;10.540;2022-07-21T10:13:48;15.50;;;10.35;;
16101;SDS011;56411;52.964;10.540;2022-07-21T10:16:15;16.63;;;11.02;;
16101;SDS011;56411;52.964;10.540;2022-07-21T10:18:50;15.45;;;10.07;;
16101;SDS011;56411;52.964;10.540;2022-07-21T10:21:26;15.55;;;9.98;;
16101;SDS011;56411;52.964;10.540;2022-07-21T10:23:58;15.63;;;10.40;;
16101;SDS011;56411;52.964;10.540;2022-07-21T10:26:25;16.65;;;9.63;;
16101;SDS011;56411;52.964;10.540;2022-07-21T10:28:52;15.50;;;9.30;;
16101;SDS011;56411;52.964;10.540;2022-07-21T10:31:19;14.77;;;9.35;;
16101;SDS011;56411;52.964;10.540;2022-07-21T10:33:59;14.15;;;9.38;;
16101;SDS011;56411;52.964;10.540;2022-07-21T10:36:46;14.43;;;9.25;;
16101;SDS011;56411;52.964;10.540;2022-07-21T10:39:17;16.50;;;9.60;;
16101;SDS011;56411;52.964;10.540;2022-07-21T10:41:46;14.60;;;9.18;;
16101;SDS011;56411;52.964;10.540;2022-07-21T10:47:06;14.50;;;8.93;;
16101;SDS011;56411;52.964;10.540;2022-07-21T10:49:46;15.55;;;9.07;;
16101;SDS011;56411;52.964;10.540;2022-07-21T10:55:22;13.10;;;8.32;;
16101;SDS011;56411;52.964;10.540;2022-07-21T11:00:45;12.07;;;7.63;;
16101;SDS011;56411;52.964;10.540;2022-07-21T11:03:15;14.02;;;8.13;;
16101;SDS011;56411;52.964;10.540;2022-07-21T11:08:48;13.18;;;7.32;;
16101;SDS011;56411;52.964;10.540;2022-07-21T11:11:16;12.43;;;7.50;;
16101;SDS011;56411;52.964;10.540;2022-07-21T11:13:57;11.35;;;6.72;;
16101;SDS011;56411;52.964;10.540;2022-07-21T11:19:35;11.50;;;6.53;;
16101;SDS011;56411;52.964;10.540;2022-07-21T11:22:06;13.98;;;6.95;;
16101;SDS011;56411;52.964;10.540;2022-07-21T11:24:36;11.05;;;7.43;;
16101;SDS011;56411;52.964;10.540;2022-07-21T11:27:06;13.20;;;7.13;;
16101;SDS011;56411;52.964;10.540;2022-07-21T11:29:34;12.15;;;6.80;;
16101;SDS011;56411;52.964;10.540;2022-07-21T11:32:04;10.63;;;5.53;;
16101;SDS011;56411;52.964;10.540;2022-07-21T11:34:39;9.10;;;5.10;;
16101;SDS011;56411;52.964;10.540;2022-07-21T11:37:13;9.98;;;5.28;;
16101;SDS011;56411;52.964;10.540;2022-07-21T11:39:41;9.13;;;5.55;;
16101;SDS011;56411;52.964;10.540;2022-07-21T11:42:10;10.52;;;5.70;;
16101;SDS011;56411;52.964;10.540;2022-07-21T11:44:38;11.20;;;5.40;;
16101;SDS011;56411;52.964;10.540;2022-07-21T11:47:06;11.23;;;5.30;;
16101;SDS011;56411;52.964;10.540;2022-07-21T11:49:36;9.00;;;5.13;;
16101;SDS011;56411;52.964;10.540;2022-07-21T11:52:04;8.23;;;4.40;;
16101;SDS011;56411;52.964;10.540;2022-07-21T11:54:35;8.52;;;4.60;;
16101;SDS011;56411;52.964;10.540;2022-07-21T11:57:04;8.05;;;4.22;;
16101;SDS011;56411;52.964;10.540;2022-07-21T11:59:32;7.30;;;4.28;;
16101;SDS011;56411;52.964;10.540;2022-07-21T12:02:02;7.38;;;4.10;;
16101;SDS011;56411;52.964;10.540;2022-07-21T12:04:35;5.97;;;3.58;;
16101;SDS011;56411;52.964;10.540;2022-07-21T12:07:05;4.78;;;2.90;;
16101;SDS011;56411;52.964;10.540;2022-07-21T12:09:37;4.32;;;2.80;;
16101;SDS011;56411;52.964;10.540;2022-07-21T12:12:05;5.38;;;2.88;;
16101;SDS011;56411;52.964;10.540;2022-07-21T12:14:40;3.88;;;2.70;;
16101;SDS011;56411;52.964;10.540;2022-07-21T12:17:11;3.95;;;2.40;;
16101;SDS011;56411;52.964;10.540;2022-07-21T12:19:38;5.43;;;2.80;;
16101;SDS011;56411;52.964;10.540;2022-07-21T12:22:06;3.45;;;2.70;;
16101;SDS011;56411;52.964;10.540;2022-07-21T12:27:22;2.53;;;2.17;;
16101;SDS011;56411;52.964;10.540;2022-07-21T12:29:49;2.95;;;2.28;;
16101;SDS011;56411;52.964;10.540;2022-07-21T12:35:16;3.63;;;2.38;;
16101;SDS011;56411;52.964;10.540;2022-07-21T12:37:51;2.55;;;2.15;;
16101;SDS011;56411;52.964;10.540;2022-07-21T12:40:24;2.70;;;2.30;;
16101;SDS011;56411;52.964;10.540;2022-07-21T12:42:51;2.28;;;2.08;;
16101;SDS011;56411;52.964;10.540;2022-07-21T12:45:43;2.40;;;2.10;;
16101;SDS011;56411;52.964;10.540;2022-07-21T12:48:17;2.90;;;2.38;;
16101;SDS011;56411;52.964;10.540;2022-07-21T12:50:59;2.60;;;2.40;;
16101;SDS011;56411;52.964;10.540;2022-07-21T12:53:32;4.03;;;2.63;;
16101;SDS011;56411;52.964;10.540;2022-07-21T12:56:05;4.95;;;2.70;;
16101;SDS011;56411;52.964;10.540;2022-07-21T12:58:33;4.47;;;2.78;;
16101;SDS011;56411;52.964;10.540;2022-07-21T13:01:02;5.05;;;3.17;;
16101;SDS011;56411;52.964;10.540;2022-07-21T13:03:29;3.45;;;2.65;;
16101;SDS011;56411;52.964;10.540;2022-07-21T13:05:57;3.83;;;2.40;;
16101;SDS011;56411;52.964;10.540;2022-07-21T13:08:24;3.53;;;2.80;;
16101;SDS011;56411;52.964;10.540;2022-07-21T13:10:51;4.40;;;2.92;;
16101;SDS011;56411;52.964;10.540;2022-07-21T13:13:20;3.33;;;2.50;;
16101;SDS011;56411;52.964;10.540;2022-07-21T13:15:47;3.97;;;2.80;;
16101;SDS011;56411;52.964;10.540;2022-07-21T13:18:14;4.60;;;2.85;;
16101;SDS011;56411;52.964;10.540;2022-07-21T13:20:41;4.30;;;2.83;;
16101;SDS011;56411;52.964;10.540;2022-07-21T13:23:08;4.13;;;2.83;;
16101;SDS011;56411;52.964;10.540;2022-07-21T13:25:35;4.43;;;3.00;;
16101;SDS011;56411;52.964;10.540;2022-07-21T13:28:02;3.38;;;2.88;;
16101;SDS011;56411;52.964;10.540;2022-07-21T13:30:30;3.28;;;2.78;;
16101;SDS011;56411;52.964;10.540;2022-07-21T13:32:57;4.22;;;2.90;;
16101;SDS011;56411;52.964;10.540;2022-07-21T13:35:24;3.70;;;3.10;;
16101;SDS011;56411;52.964;10.540;2022-07-21T13:37:51;4.88;;;3.20;;
16101;SDS011;56411;52.964;10.540;2022-07-21T13:40:19;5.20;;;3.35;;
16101;SDS011;56411;52.964;10.540;2022-07-21T13:42:46;4.50;;;3.25;;
16101;SDS011;56411;52.964;10.540;2022-07-21T13:45:12;6.15;;;3.80;;
16101;SDS011;56411;52.964;10.540;2022-07-21T13:47:42;6.80;;;3.65;;
16101;SDS011;56411;52.964;10.540;2022-07-21T13:50:09;7.43;;;4.50;;
16101;SDS011;56411;52.964;10.540;2022-07-21T13:52:37;7.20;;;4.22;;
16101;SDS011;56411;52.964;10.540;2022-07-21T13:55:06;6.95;;;4.53;;
16101;SDS011;56411;52.964;10.540;2022-07-21T13:57:33;8.27;;;5.05;;
16101;SDS011;56411;52.964;10.540;2022-07-21T14:00:00;8.63;;;5.20;;
16101;SDS011;56411;52.964;10.540;2022-07-21T14:02:28;9.35;;;5.20;;
16101;SDS011;56411;52.964;10.540;2022-07-21T14:04:56;8.95;;;5.20;;
16101;SDS011;56411;52.964;10.540;2022-07-21T14:07:23;8.73;;;5.20;;
16101;SDS011;56411;52.964;10.540;2022-07-21T14:09:50;8.82;;;5.55;;
16101;SDS011;56411;52.964;10.540;2022-07-21T14:12:17;9.75;;;6.20;;
16101;SDS011;56411;52.964;10.540;2022-07-21T14:14:44;10.50;;;6.25;;
16101;SDS011;56411;52.964;10.540;2022-07-21T14:17:12;10.35;;;6.53;;
16101;SDS011;56411;52.964;10.540;2022-07-21T14:19:39;9.95;;;6.57;;
16101;SDS011;56411;52.964;10.540;2022-07-21T14:22:07;11.18;;;7.28;;
16101;SDS011;56411;52.964;10.540;2022-07-21T14:24:34;10.35;;;7.13;;
16101;SDS011;56411;52.964;10.540;2022-07-21T14:27:18;14.40;;;3.92;;
16101;SDS011;56411;52.964;10.540;2022-07-21T14:29:45;7.43;;;3.63;;
16101;SDS011;56411;52.964;10.540;2022-07-21T14:32:12;5.50;;;3.53;;
16101;SDS011;56411;52.964;10.540;2022-07-21T14:34:41;6.70;;;3.20;;
16101;SDS011;56411;52.964;10.540;2022-07-21T14:37:12;5.97;;;3.10;;
16101;SDS011;56411;52.964;10.540;2022-07-21T14:39:38;6.75;;;3.15;;
16101;SDS011;56411;52.964;10.540;2022-07-21T14:42:05;6.40;;;3.05;;
16101;SDS011;56411;52.964;10.540;2022-07-21T14:44:34;5.35;;;3.10;;
16101;SDS011;56411;52.964;10.540;2022-07-21T14:47:01;10.00;;;3.90;;